sensor_id;sensor_type;location;lat;lon;timestamp;pressure;altitude;pressure_sealevel;temperature;humidity
5879;BME280;2965;42.640;23.370;2023-03-03T05:00:54;94353.03;;;4.27;100.00
5879;BME280;2965;42.640;23.370;2023-03-03T05:03:21;94352.31;;;4.17;100.00
5879;BME280;2965;42.640;23.370;2023-03-03T05:05:46;94352.06;;;4.28;100.00
5879;BME280;2965;42.640;23.370;2023-03-03T05:08:13;94349.91;;;4.42;100.00
5879;BME280;2965;42.640;23.370;2023-03-03T05:10:38;94352.84;;;4.47;100.00
5879;BME280;2965;42.640;23.370;2023-03-03T05:13:04;94351.00;;;4.57;100.00
5879;BME280;2965;42.640;23.370;2023-03-03T05:15:30;94356.03;;;4.59;100.00
5879;BME280;2965;42.640;23.370;2023-03-03T05:17:56;94364.78;;;4.58;100.00
5879;BME280;2965;42.640;23.370;2023-03-03T05:20:23;94359.75;;;4.56;100.00
5879;BME280;2965;42.640;23.370;2023-03-03T05:22:48;94360.13;;;4.61;100.00
5879;BME280;2965;42.640;23.370;2023-03-03T05:25:14;94363.06;;;4.66;100.00
5879;BME280;2965;42.640;23.370;2023-03-03T05:27:39;94359.50;;;4.67;100.00
5879;BME280;2965;42.640;23.370;2023-03-03T05:30:05;94363.66;;;4.60;100.00
5879;BME280;2965;42.640;23.370;2023-03-03T05:32:31;94363.88;;;4.67;100.00
5879;BME280;2965;42.640;23.370;2023-03-03T05:34:57;94358.47;;;4.60;100.00
5879;BME280;2965;42.640;23.370;2023-03-03T05:37:22;94361.72;;;4.62;100.00
5879;BME280;2965;42.640;23.370;2023-03-03T05:39:48;94363.22;;;4.47;100.00
5879;BME280;2965;42.640;23.370;2023-03-03T05:42:14;94361.50;;;4.55;100.00
5879;BME280;2965;42.640;23.370;2023-03-03T05:44:39;94367.22;;;4.59;100.00
5879;BME280;2965;42.640;23.370;2023-03-03T05:47:05;94368.47;;;4.55;100.00
5879;BME280;2965;42.640;23.370;2023-03-03T05:49:30;94375.22;;;4.48;100.00
5879;BME280;2965;42.640;23.370;2023-03-03T05:51:55;94373.91;;;4.44;100.00
5879;BME280;2965;42.640;23.370;2023-03-03T05:54:21;94375.50;;;4.45;100.00
5879;BME280;2965;42.640;23.370;2023-03-03T05:56:46;94357.47;;;4.53;100.00
5879;BME280;2965;42.640;23.370;2023-03-03T05:59:12;94367.72;;;4.63;100.00
5879;BME280;2965;42.640;23.370;2023-03-03T06:01:37;94370.31;;;4.63;100.00
5879;BME280;2965;42.640;23.370;2023-03-03T06:04:03;94366.31;;;4.68;100.00
5879;BME280;2965;42.640;23.370;2023-03-03T06:06:28;94350.75;;;4.68;100.00
5879;BME280;2965;42.640;23.370;2023-03-03T06:08:54;94370.56;;;4.77;100.00
5879;BME280;2965;42.640;23.370;2023-03-03T06:11:19;94364.38;;;4.70;100.00
5879;BME280;2965;42.640;23.370;2023-03-03T06:13:45;94364.06;;;4.73;100.00
5879;BME280;2965;42.640;23.370;2023-03-03T06:16:10;94371.00;;;4.91;100.00
5879;BME280;2965;42.640;23.370;2023-03-03T06:18:36;94370.69;;;4.94;100.00
5879;BME280;2965;42.640;23.370;2023-03-03T06:21:02;94377.59;;;4.85;100.00
5879;BME280;2965;42.640;23.370;2023-03-03T06:23:27;94387.09;;;4.76;100.00
5879;BME280;2965;42.640;23.370;2023-03-03T06:25:52;94381.09;;;4.76;100.00
5879;BME280;2965;42.640;23.370;2023-03-03T06:28:18;94382.28;;;4.81;100.00
5879;BME280;2965;42.640;23.370;2023-03-03T06:30:43;94383.31;;;4.89;100.00
5879;BME280;2965;42.640;23.370;2023-03-03T06:33:09;94373.22;;;4.86;100.00
5879;BME280;2965;42.640;23.370;2023-03-03T06:35:35;94383.00;;;4.92;100.00
5879;BME280;2965;42.640;23.370;2023-03-03T06:38:00;94375.59;;;4.97;100.00
5879;BME280;2965;42.640;23.370;2023-03-03T06:40:26;94386.31;;;5.02;100.00
5879;BME280;2965;42.640;23.370;2023-03-03T06:42:51;94383.03;;;5.00;100.00
5879;BME280;2965;42.640;23.370;2023-03-03T06:45:16;94380.50;;;5.08;100.00
5879;BME280;2965;42.640;23.370;2023-03-03T06:47:42;94381.88;;;5.20;100.00
5879;BME280;2965;42.640;23.370;2023-03-03T06:50:10;94385.75;;;5.16;100.00
5879;BME280;2965;42.640;23.370;2023-03-03T06:52:36;94385.44;;;5.19;100.00
5879;BME280;2965;42.640;23.370;2023-03-03T06:55:10;94390.94;;;5.16;100.00
5879;BME280;2965;42.640;23.370;2023-03-03T06:57:36;94391.53;;;5.36;100.00
5879;BME280;2965;42.640;23.370;2023-03-03T07:00:14;94391.41;;;5.46;100.00
5879;BME280;2965;42.640;23.370;2023-03-03T07:02:39;94395.25;;;5.34;100.00
5879;BME280;2965;42.640;23.370;2023-03-03T07:05:10;94395.00;;;5.45;100.00
5879;BME280;2965;42.640;23.370;2023-03-03T07:07:37;94394.06;;;5.54;100.00
5879;BME280;2965;42.640;23.370;2023-03-03T07:10:06;94392.75;;;5.50;100.00
5879;BME280;2965;42.640;23.370;2023-03-03T07:12:37;94394.91;;;5.63;100.00
5879;BME280;2965;42.640;23.370;2023-03-03T07:15:14;94397.00;;;5.59;100.00
5879;BME280;2965;42.640;23.370;2023-03-03T07:17:43;94401.25;;;5.68;100.00
5879;BME280;2965;42.640;23.370;2023-03-03T07:20:23;94399.63;;;5.67;100.00
5879;BME280;2965;42.640;23.370;2023-03-03T07:22:49;94394.13;;;5.36;100.00
5879;BME280;2965;42.640;23.370;2023-03-03T07:25:27;94391.63;;;5.26;100.00
5879;BME280;2965;42.640;23.370;2023-03-03T07:27:59;94393.72;;;5.57;100.00
5879;BME280;2965;42.640;23.370;2023-03-03T07:30:27;94398.00;;;5.74;100.00
5879;BME280;2965;42.640;23.370;2023-03-03T07:32:57;94394.75;;;5.64;100.00
5879;BME280;2965;42.640;23.370;2023-03-03T07:38:00;94389.47;;;5.48;100.00
5879;BME280;2965;42.640;23.370;2023-03-03T07:40:38;94392.41;;;5.53;100.00
5879;BME280;2965;42.640;23.370;2023-03-03T07:48:37;94392.50;;;5.69;100.00
5879;BME280;2965;42.640;23.370;2023-03-03T07:51:12;94392.50;;;5.69;100.00
5879;BME280;2965;42.640;23.370;2023-03-03T07:53:40;94385.94;;;5.57;100.00
5879;BME280;2965;42.640;23.370;2023-03-03T07:56:29;94388.91;;;5.70;100.00
5879;BME280;2965;42.640;23.370;2023-03-03T07:58:56;94390.94;;;5.85;100.00
5879;BME280;2965;42.640;23.370;2023-03-03T08:01:44;94383.53;;;5.98;100.00
5879;BME280;2965;42.640;23.370;2023-03-03T08:04:24;94380.31;;;6.04;100.00
5879;BME280;2965;42.640;23.370;2023-03-03T08:06:58;94374.47;;;6.10;100.00
5879;BME280;2965;42.640;23.370;2023-03-03T08:09:36;94376.56;;;5.98;100.00
5879;BME280;2965;42.640;23.370;2023-03-03T08:14:34;94377.06;;;6.10;100.00
5879;BME280;2965;42.640;23.370;2023-03-03T08:17:00;94386.44;;;5.95;100.00
5879;BME280;2965;42.640;23.370;2023-03-03T08:19:29;94370.63;;;5.88;100.00
5879;BME280;2965;42.640;23.370;2023-03-03T08:22:10;94381.09;;;5.96;100.00
5879;BME280;2965;42.640;23.370;2023-03-03T08:24:36;94376.88;;;5.95;100.00
5879;BME280;2965;42.640;23.370;2023-03-03T08:27:01;94375.09;;;5.96;100.00
5879;BME280;2965;42.640;23.370;2023-03-03T08:29:27;94370.22;;;6.01;100.00
5879;BME280;2965;42.640;23.370;2023-03-03T08:31:52;94374.09;;;5.97;100.00
5879;BME280;2965;42.640;23.370;2023-03-03T08:34:18;94368.59;;;5.92;100.00
5879;BME280;2965;42.640;23.370;2023-03-03T08:36:43;94363.53;;;5.90;100.00
5879;BME280;2965;42.640;23.370;2023-03-03T08:39:08;94369.53;;;5.91;100.00
5879;BME280;2965;42.640;23.370;2023-03-03T08:41:34;94371.38;;;5.98;100.00
5879;BME280;2965;42.640;23.370;2023-03-03T08:43:59;94374.53;;;5.84;100.00
5879;BME280;2965;42.640;23.370;2023-03-03T08:46:25;94367.22;;;5.79;100.00
5879;BME280;2965;42.640;23.370;2023-03-03T08:48:50;94358.78;;;5.77;100.00
5879;BME280;2965;42.640;23.370;2023-03-03T08:51:16;94375.44;;;6.09;100.00
5879;BME280;2965;42.640;23.370;2023-03-03T08:53:42;94374.34;;;6.20;100.00
5879;BME280;2965;42.640;23.370;2023-03-03T08:56:07;94381.31;;;6.27;100.00
5879;BME280;2965;42.640;23.370;2023-03-03T08:58:34;94375.16;;;6.37;100.00
5879;BME280;2965;42.640;23.370;2023-03-03T09:00:59;94380.69;;;6.34;100.00
5879;BME280;2965;42.640;23.370;2023-03-03T09:03:25;94378.72;;;6.36;100.00
5879;BME280;2965;42.640;23.370;2023-03-03T09:05:50;94371.25;;;6.16;100.00
5879;BME280;2965;42.640;23.370;2023-03-03T09:08:15;94375.00;;;6.30;100.00
5879;BME280;2965;42.640;23.370;2023-03-03T09:10:41;94376.56;;;6.15;100.00
5879;BME280;2965;42.640;23.370;2023-03-03T09:13:12;94371.25;;;6.24;100.00
5879;BME280;2965;42.640;23.370;2023-03-03T09:15:38;94363.63;;;6.31;100.00
5879;BME280;2965;42.640;23.370;2023-03-03T09:20:46;94369.31;;;6.26;100.00
5879;BME280;2965;42.640;23.370;2023-03-03T09:25:51;94361.16;;;6.05;100.00
5879;BME280;2965;42.640;23.370;2023-03-03T09:28:23;94367.16;;;6.05;100.00
5879;BME280;2965;42.640;23.370;2023-03-03T09:30:49;94371.50;;;5.97;100.00
5879;BME280;2965;42.640;23.370;2023-03-03T09:36:10;94371.78;;;5.86;100.00
5879;BME280;2965;42.640;23.370;2023-03-03T09:38:43;94367.97;;;6.06;100.00
5879;BME280;2965;42.640;23.370;2023-03-03T09:54:16;94374.84;;;5.81;100.00
5879;BME280;2965;42.640;23.370;2023-03-03T09:56:50;94374.91;;;5.97;100.00
5879;BME280;2965;42.640;23.370;2023-03-03T10:07:32;94369.97;;;6.20;100.00
5879;BME280;2965;42.640;23.370;2023-03-03T10:12:34;94361.16;;;6.13;100.00
5879;BME280;2965;42.640;23.370;2023-03-03T10:15:17;94365.06;;;6.17;100.00
5879;BME280;2965;42.640;23.370;2023-03-03T10:17:50;94356.97;;;6.45;100.00
5879;BME280;2965;42.640;23.370;2023-03-03T10:20:24;94360.72;;;6.67;100.00
5879;BME280;2965;42.640;23.370;2023-03-03T10:22:55;94353.09;;;6.65;100.00
5879;BME280;2965;42.640;23.370;2023-03-03T10:25:41;94357.00;;;6.61;100.00
5879;BME280;2965;42.640;23.370;2023-03-03T10:33:52;94353.09;;;6.49;100.00
5879;BME280;2965;42.640;23.370;2023-03-03T10:50:53;94351.13;;;6.35;100.00
5879;BME280;2965;42.640;23.370;2023-03-03T10:56:53;94334.91;;;6.65;100.00
5879;BME280;2965;42.640;23.370;2023-03-03T11:04:52;94324.81;;;6.21;100.00
5879;BME280;2965;42.640;23.370;2023-03-03T11:07:41;94323.53;;;6.34;100.00
5879;BME280;2965;42.640;23.370;2023-03-03T11:10:20;94326.78;;;6.52;100.00
5879;BME280;2965;42.640;23.370;2023-03-03T11:23:54;94301.28;;;6.47;100.00
5879;BME280;2965;42.640;23.370;2023-03-03T11:26:32;94306.16;;;6.42;100.00
5879;BME280;2965;42.640;23.370;2023-03-03T11:34:46;94317.66;;;6.07;100.00
5879;BME280;2965;42.640;23.370;2023-03-03T11:37:28;94306.28;;;6.00;100.00
5879;BME280;2965;42.640;23.370;2023-03-03T11:40:03;94309.06;;;5.98;100.00
5879;BME280;2965;42.640;23.370;2023-03-03T11:43:03;94301.75;;;5.94;100.00
5879;BME280;2965;42.640;23.370;2023-03-03T11:45:41;94299.16;;;6.10;100.00
5879;BME280;2965;42.640;23.370;2023-03-03T11:48:17;94297.63;;;5.91;100.00
5879;BME280;2965;42.640;23.370;2023-03-03T11:50:53;94292.44;;;5.91;100.00
5879;BME280;2965;42.640;23.370;2023-03-03T11:53:28;94293.31;;;6.00;100.00
5879;BME280;2965;42.640;23.370;2023-03-03T11:56:01;94290.22;;;6.13;100.00
5879;BME280;2965;42.640;23.370;2023-03-03T11:58:33;94295.94;;;6.24;100.00
5879;BME280;2965;42.640;23.370;2023-03-03T12:01:14;94292.03;;;6.20;100.00
5879;BME280;2965;42.640;23.370;2023-03-03T12:03:48;94289.09;;;6.07;100.00
5879;BME280;2965;42.640;23.370;2023-03-03T12:12:32;94280.66;;;6.29;100.00
5879;BME280;2965;42.640;23.370;2023-03-03T12:20:58;94283.56;;;6.18;100.00
5879;BME280;2965;42.640;23.370;2023-03-03T12:29:06;94292.66;;;6.14;100.00
5879;BME280;2965;42.640;23.370;2023-03-03T12:34:42;94293.97;;;6.18;100.00
5879;BME280;2965;42.640;23.370;2023-03-03T12:40:11;94295.94;;;6.16;100.00
5879;BME280;2965;42.640;23.370;2023-03-03T12:42:59;94298.66;;;6.15;100.00
5879;BME280;2965;42.640;23.370;2023-03-03T13:04:37;94276.09;;;6.15;100.00
5879;BME280;2965;42.640;23.370;2023-03-03T13:12:27;94277.41;;;6.19;100.00
5879;BME280;2965;42.640;23.370;2023-03-03T13:15:11;94267.69;;;6.38;100.00
5879;BME280;2965;42.640;23.370;2023-03-03T13:17:53;94266.53;;;6.40;100.00
5879;BME280;2965;42.640;23.370;2023-03-03T13:26:09;94264.41;;;6.27;100.00
5879;BME280;2965;42.640;23.370;2023-03-03T13:28:42;94268.31;;;6.15;100.00
5879;BME280;2965;42.640;23.370;2023-03-03T14:17:30;94253.94;;;5.70;100.00
5879;BME280;2965;42.640;23.370;2023-03-03T14:22:49;94255.25;;;5.74;100.00
5879;BME280;2965;42.640;23.370;2023-03-03T14:25:16;94243.28;;;5.90;100.00
5879;BME280;2965;42.640;23.370;2023-03-03T14:30:29;94243.59;;;5.78;100.00
5879;BME280;2965;42.640;23.370;2023-03-03T14:35:28;94249.75;;;5.77;100.00
5879;BME280;2965;42.640;23.370;2023-03-03T14:38:00;94241.00;;;5.78;100.00
5879;BME280;2965;42.640;23.370;2023-03-03T14:40:31;94238.41;;;5.87;100.00
5879;BME280;2965;42.640;23.370;2023-03-03T14:42:59;94244.41;;;5.87;100.00
5879;BME280;2965;42.640;23.370;2023-03-03T14:47:59;94239.38;;;5.86;100.00
5879;BME280;2965;42.640;23.370;2023-03-03T14:50:34;94249.81;;;5.94;100.00
5879;BME280;2965;42.640;23.370;2023-03-03T14:53:14;94253.69;;;5.90;100.00
5879;BME280;2965;42.640;23.370;2023-03-03T14:55:46;94249.44;;;5.89;100.00
5879;BME280;2965;42.640;23.370;2023-03-03T14:58:39;94243.28;;;5.90;100.00
5879;BME280;2965;42.640;23.370;2023-03-03T15:03:34;94237.81;;;6.17;100.00
5879;BME280;2965;42.640;23.370;2023-03-03T15:06:10;94237.81;;;6.34;100.00
5879;BME280;2965;42.640;23.370;2023-03-03T15:08:40;94242.00;;;6.51;100.00
5879;BME280;2965;42.640;23.370;2023-03-03T15:11:19;94241.97;;;6.67;100.00
5879;BME280;2965;42.640;23.370;2023-03-03T15:13:45;94239.16;;;6.85;100.00
5879;BME280;2965;42.640;23.370;2023-03-03T15:16:21;94247.09;;;7.00;100.00
5879;BME280;2965;42.640;23.370;2023-03-03T15:19:23;94244.78;;;7.05;100.00
5879;BME280;2965;42.640;23.370;2023-03-03T15:24:29;94248.97;;;7.22;100.00
5879;BME280;2965;42.640;23.370;2023-03-03T15:27:04;94251.53;;;7.30;100.00
5879;BME280;2965;42.640;23.370;2023-03-03T15:29:40;94251.81;;;7.36;100.00
5879;BME280;2965;42.640;23.370;2023-03-03T15:32:13;94257.94;;;7.43;100.00
5879;BME280;2965;42.640;23.370;2023-03-03T15:34:55;94258.63;;;7.45;100.00
5879;BME280;2965;42.640;23.370;2023-03-03T15:37:32;94252.78;;;7.34;100.00
5879;BME280;2965;42.640;23.370;2023-03-03T15:43:13;94256.63;;;7.47;100.00
5879;BME280;2965;42.640;23.370;2023-03-03T16:02:49;94262.75;;;7.62;100.00
5879;BME280;2965;42.640;23.370;2023-03-03T16:05:38;94273.31;;;7.29;100.00
5879;BME280;2965;42.640;23.370;2023-03-03T16:10:39;94271.69;;;7.28;100.00
5879;BME280;2965;42.640;23.370;2023-03-03T16:15:52;94280.75;;;7.41;100.00
5879;BME280;2965;42.640;23.370;2023-03-03T16:39:54;94291.53;;;7.21;100.00
5879;BME280;2965;42.640;23.370;2023-03-03T16:42:30;94297.41;;;7.15;100.00
5879;BME280;2965;42.640;23.370;2023-03-03T16:56:20;94323.41;;;7.31;100.00
5879;BME280;2965;42.640;23.370;2023-03-03T17:04:05;94325.63;;;7.43;100.00
5879;BME280;2965;42.640;23.370;2023-03-03T17:06:36;94330.16;;;7.49;100.00
5879;BME280;2965;42.640;23.370;2023-03-03T17:14:38;94328.25;;;7.34;100.00
5879;BME280;2965;42.640;23.370;2023-03-03T17:20:04;94336.69;;;7.45;100.00
5879;BME280;2965;42.640;23.370;2023-03-03T17:23:01;94340.44;;;7.42;100.00
5879;BME280;2965;42.640;23.370;2023-03-03T17:26:24;94341.63;;;7.31;100.00
5879;BME280;2965;42.640;23.370;2023-03-03T17:43:28;94345.94;;;6.75;100.00
5879;BME280;2965;42.640;23.370;2023-03-03T17:45:29;94354.06;;;6.72;100.00
5879;BME280;2965;42.640;23.370;2023-03-03T17:48:11;94357.13;;;6.84;100.00
5879;BME280;2965;42.640;23.370;2023-03-03T17:51:09;94364.94;;;6.92;100.00
5879;BME280;2965;42.640;23.370;2023-03-03T17:56:23;94361.16;;;7.11;100.00
5879;BME280;2965;42.640;23.370;2023-03-03T17:59:11;94367.66;;;7.23;100.00
5879;BME280;2965;42.640;23.370;2023-03-03T18:02:06;94369.75;;;7.28;100.00
5879;BME280;2965;42.640;23.370;2023-03-03T18:11:07;94376.47;;;6.90;100.00
5879;BME280;2965;42.640;23.370;2023-03-03T18:17:04;94374.53;;;6.75;100.00
5879;BME280;2965;42.640;23.370;2023-03-03T18:22:12;94380.06;;;6.56;100.00
5879;BME280;2965;42.640;23.370;2023-03-03T18:27:33;94385.59;;;6.69;100.00
5879;BME280;2965;42.640;23.370;2023-03-03T18:30:18;94389.81;;;6.62;100.00
5879;BME280;2965;42.640;23.370;2023-03-03T18:35:44;94390.75;;;6.86;100.00
5879;BME280;2965;42.640;23.370;2023-03-03T18:40:50;94395.50;;;6.82;100.00
5879;BME280;2965;42.640;23.370;2023-03-03T18:49:06;94408.97;;;6.61;100.00
5879;BME280;2965;42.640;23.370;2023-03-03T19:04:42;94425.56;;;6.85;100.00
5879;BME280;2965;42.640;23.370;2023-03-03T19:07:24;94421.31;;;6.75;100.00
5879;BME280;2965;42.640;23.370;2023-03-03T19:18:24;94430.75;;;6.93;100.00
5879;BME280;2965;42.640;23.370;2023-03-03T19:21:31;94429.59;;;6.71;100.00
5879;BME280;2965;42.640;23.370;2023-03-03T19:26:52;94430.13;;;6.82;100.00
5879;BME280;2965;42.640;23.370;2023-03-03T19:34:57;94431.91;;;6.82;100.00
5879;BME280;2965;42.640;23.370;2023-03-03T19:46:20;94425.41;;;6.78;100.00
5879;BME280;2965;42.640;23.370;2023-03-03T19:54:36;94424.41;;;6.71;100.00
5879;BME280;2965;42.640;23.370;2023-03-03T20:05:51;94418.06;;;6.90;100.00
5879;BME280;2965;42.640;23.370;2023-03-03T20:08:42;94420.66;;;6.98;100.00
5879;BME280;2965;42.640;23.370;2023-03-03T20:11:17;94418.38;;;7.03;100.00
5879;BME280;2965;42.640;23.370;2023-03-03T20:16:39;94417.09;;;6.99;100.00
5879;BME280;2965;42.640;23.370;2023-03-03T20:22:12;94412.88;;;7.06;100.00
5879;BME280;2965;42.640;23.370;2023-03-03T20:27:42;94419.38;;;7.10;100.00
5879;BME280;2965;42.640;23.370;2023-03-03T20:30:30;94413.50;;;7.16;100.00
5879;BME280;2965;42.640;23.370;2023-03-03T20:39:03;94411.56;;;7.26;100.00
5879;BME280;2965;42.640;23.370;2023-03-03T20:41:44;94411.56;;;7.26;100.00
5879;BME280;2965;42.640;23.370;2023-03-03T20:50:02;94405.69;;;7.32;100.00
5879;BME280;2965;42.640;23.370;2023-03-03T21:03:32;94391.13;;;6.91;100.00
5879;BME280;2965;42.640;23.370;2023-03-03T21:06:05;94384.25;;;6.98;100.00
5879;BME280;2965;42.640;23.370;2023-03-03T21:08:54;94386.22;;;6.96;100.00
5879;BME280;2965;42.640;23.370;2023-03-03T21:13:51;94394.84;;;6.96;100.00
5879;BME280;2965;42.640;23.370;2023-03-03T21:21:27;94401.34;;;7.08;100.00
5879;BME280;2965;42.640;23.370;2023-03-03T21:23:53;94406.38;;;7.02;100.00
5879;BME280;2965;42.640;23.370;2023-03-03T21:26:53;94414.97;;;7.02;100.00
5879;BME280;2965;42.640;23.370;2023-03-03T21:34:29;94424.91;;;6.82;100.00
5879;BME280;2965;42.640;23.370;2023-03-03T21:36:59;94430.44;;;6.79;100.00
5879;BME280;2965;42.640;23.370;2023-03-03T21:42:03;94435.97;;;6.10;100.00
5879;BME280;2965;42.640;23.370;2023-03-03T21:44:34;94435.13;;;6.01;100.00
5879;BME280;2965;42.640;23.370;2023-03-03T21:47:00;94420.53;;;6.00;100.00
5879;BME280;2965;42.640;23.370;2023-03-03T21:49:26;94418.28;;;6.05;100.00
5879;BME280;2965;42.640;23.370;2023-03-03T21:51:53;94417.94;;;6.00;100.00
5879;BME280;2965;42.640;23.370;2023-03-03T21:54:18;94419.91;;;6.06;100.00
5879;BME280;2965;42.640;23.370;2023-03-03T21:56:44;94413.72;;;5.99;100.00
5879;BME280;2965;42.640;23.370;2023-03-03T21:59:12;94419.22;;;5.96;100.00
